Norfolk, Virginia
Current Conditions -  °F | °C
As of 3:51 PM on Sunday 23 Nov 2014 (Local Time) from KORF Reporting Station
Broken Clouds Broken Clouds  
Wind Chill: 63°   Ceiling: 5500
Heat Index: 63°   Visibility: 10mi
Dew Point: 50°   Wind: 8mph
Humidity: 63%   Direction: 130°SE
Pressure: 30.1"   Gusts: NA
Location:  36.85°N, 76.28°W
Report Text: KORF 232051Z AUTO 13007KT 10SM FEW032 SCT047 BKN055 17/10 A3010 RMK AO2 SLP193 T01720100 57021 TSNO
Loading
Personal Weather Stations






























Interactive Weather Map New forecast layout! Learn more

10-Day Weather Forecast

Advertisements
Track Severe Weather on mobile